Time;durP1;ratioP1;P1;durP2;ratioP2;P2;SDS_P1;SDS_P2;PMS_P1;PMS_P2;Temp;Humidity;BMP_temperature;BMP_pressure;BME280_temperature;BME280_humidity;BME280_pressure;Samples;Min_cycle;Max_cycle;Signal;HPM_P1;HPM_P2
2023/03/12 00:00:40;;;;;;;13.07;7.35;;;-0.70;99.90;;;;;;5048960;28;20037;-62
2023/03/12 00:03:06;;;;;;;12.95;7.70;;;-0.70;99.90;;;;;;5035208;28;20074;-62
2023/03/12 00:05:32;;;;;;;9.73;6.70;;;-0.80;99.90;;;;;;5050008;28;20060;-62
2023/03/12 00:07:58;;;;;;;12.32;6.75;;;-0.90;99.90;;;;;;5047687;28;20125;-62
2023/03/12 00:10:28;;;;;;;15.95;7.22;;;-0.90;99.90;;;;;;5043742;28;20041;-62
2023/03/12 00:12:53;;;;;;;13.07;7.25;;;-0.90;99.90;;;;;;5021867;28;20048;-62
2023/03/12 00:15:19;;;;;;;12.68;7.78;;;-0.90;99.90;;;;;;5049946;28;20064;-62
2023/03/12 00:17:45;;;;;;;13.55;7.07;;;-0.90;99.90;;;;;;5048127;28;20040;-63
2023/03/12 00:20:11;;;;;;;13.57;7.32;;;-0.90;99.90;;;;;;5037524;28;20069;-62
2023/03/12 00:22:37;;;;;;;17.42;7.65;;;-0.90;99.90;;;;;;5046198;28;20036;-62
2023/03/12 00:25:04;;;;;;;16.92;8.07;;;-0.90;99.90;;;;;;5049726;28;20510;-62
2023/03/12 00:27:30;;;;;;;17.50;8.10;;;-0.90;99.90;;;;;;5049701;28;20041;-63
2023/03/12 00:29:55;;;;;;;12.80;8.18;;;-0.80;99.90;;;;;;5030933;28;20076;-63
2023/03/12 00:32:22;;;;;;;15.77;8.02;;;-0.80;99.90;;;;;;5046335;28;20064;-63
2023/03/12 00:34:54;;;;;;;14.75;7.95;;;-0.70;99.90;;;;;;5049946;28;20179;-64
2023/03/12 00:37:20;;;;;;;16.48;8.05;;;-0.70;99.90;;;;;;5041519;28;20083;-63
2023/03/12 00:39:46;;;;;;;15.27;8.68;;;-0.70;99.90;;;;;;5050224;28;20510;-62
2023/03/12 00:42:12;;;;;;;17.95;9.25;;;-0.70;99.90;;;;;;5053503;28;20033;-63
2023/03/12 00:44:37;;;;;;;19.52;9.23;;;-0.60;99.90;;;;;;5044935;28;20511;-63
2023/03/12 00:47:03;;;;;;;15.75;8.98;;;-0.60;99.90;;;;;;5035997;28;20029;-63
2023/03/12 00:49:29;;;;;;;19.30;8.40;;;-0.60;99.90;;;;;;5053013;28;20493;-63
2023/03/12 00:51:54;;;;;;;18.35;8.00;;;-0.50;99.90;;;;;;5048595;28;20544;-63
2023/03/12 00:54:20;;;;;;;19.92;8.85;;;-0.50;99.90;;;;;;5047508;28;20499;-64
2023/03/12 00:56:46;;;;;;;15.00;8.40;;;-0.50;99.90;;;;;;5052840;28;20120;-63
2023/03/12 00:59:13;;;;;;;16.42;7.70;;;-0.60;99.90;;;;;;5052926;28;20041;-63
2023/03/12 01:01:38;;;;;;;17.42;9.02;;;-0.60;99.90;;;;;;5045663;28;20029;-63
2023/03/12 01:04:04;;;;;;;16.90;8.23;;;-0.60;99.90;;;;;;5052387;28;20032;-63
2023/03/12 01:06:30;;;;;;;15.82;8.20;;;-0.60;99.90;;;;;;5053122;28;20044;-63
2023/03/12 01:08:55;;;;;;;18.50;9.07;;;-0.60;99.90;;;;;;5037808;28;20048;-63
2023/03/12 01:11:21;;;;;;;15.00;7.55;;;-0.60;99.90;;;;;;5041630;28;20048;-63
2023/03/12 01:13:47;;;;;;;14.30;7.63;;;-0.60;99.90;;;;;;5052571;28;20025;-63
2023/03/12 01:16:13;;;;;;;15.68;7.95;;;-0.60;99.90;;;;;;5052641;28;20522;-63
2023/03/12 01:18:38;;;;;;;16.13;7.50;;;-0.60;99.90;;;;;;5043079;28;20403;-63
2023/03/12 01:21:04;;;;;;;12.18;7.10;;;-0.60;99.90;;;;;;5039266;28;20072;-63
2023/03/12 01:23:30;;;;;;;12.82;7.13;;;-0.50;99.90;;;;;;5052646;28;20029;-63
2023/03/12 01:25:55;;;;;;;12.73;7.20;;;-0.50;99.90;;;;;;5041577;28;20040;-63
2023/03/12 01:28:23;;;;;;;16.98;7.53;;;-0.40;99.90;;;;;;5051869;28;20033;-64
2023/03/12 01:30:49;;;;;;;13.20;6.80;;;-0.30;99.90;;;;;;5051842;28;20679;-63
2023/03/12 01:33:15;;;;;;;14.20;6.30;;;-0.30;99.90;;;;;;5048175;28;20056;-63
2023/03/12 01:35:41;;;;;;;14.00;6.55;;;-0.20;99.90;;;;;;5048117;28;20045;-63
2023/03/12 01:38:12;;;;;;;12.23;6.53;;;-0.20;99.90;;;;;;5051906;28;20059;-63
2023/03/12 01:40:37;;;;;;;11.40;6.95;;;-0.30;99.90;;;;;;5052469;28;20040;-63
2023/03/12 01:43:24;;;;;;;13.13;7.05;;;-0.30;99.90;;;;;;5037949;28;20675;-63
2023/03/12 01:46:11;;;;;;;13.00;6.35;;;-0.30;99.90;;;;;;5050137;28;20517;-63
2023/03/12 01:48:43;;;;;;;9.50;5.97;;;-0.30;99.90;;;;;;5052005;28;20037;-63
2023/03/12 01:51:12;;;;;;;11.70;6.00;;;-0.40;99.90;;;;;;5040525;28;20037;-63
2023/03/12 01:53:39;;;;;;;11.85;6.28;;;-0.30;99.90;;;;;;5050826;28;20064;-63
2023/03/12 01:56:07;;;;;;;13.48;6.13;;;-0.30;99.90;;;;;;5052231;28;20146;-63
2023/03/12 01:58:36;;;;;;;10.20;6.10;;;-0.20;99.90;;;;;;5048325;28;20041;-63
2023/03/12 02:01:02;;;;;;;9.82;5.88;;;-0.20;99.90;;;;;;5040746;28;20491;-64
2023/03/12 02:03:31;;;;;;;12.43;6.15;;;-0.10;99.90;;;;;;5051555;28;20090;-63
2023/03/12 02:06:05;;;;;;;11.93;6.07;;;-0.10;99.90;;;;;;5051946;28;20078;-64
2023/03/12 02:08:36;;;;;;;8.85;5.93;;;-0.10;99.90;;;;;;5036514;28;20040;-64
2023/03/12 02:11:02;;;;;;;15.32;6.80;;;0.00;99.90;;;;;;5035975;28;20049;-63
2023/03/12 02:13:27;;;;;;;11.02;6.20;;;0.00;99.90;;;;;;5051887;28;20041;-63
2023/03/12 02:15:53;;;;;;;11.88;6.10;;;0.10;99.90;;;;;;5048051;28;20048;-63
2023/03/12 02:18:20;;;;;;;11.18;6.43;;;0.10;99.90;;;;;;5032121;28;20037;-64
2023/03/12 02:20:57;;;;;;;11.95;6.20;;;0.10;99.90;;;;;;5034829;28;20043;-63
2023/03/12 02:23:54;;;;;;;12.93;6.05;;;0.10;99.90;;;;;;5045501;28;20037;-63
2023/03/12 02:26:21;;;;;;;10.00;6.07;;;0.10;99.90;;;;;;5045036;28;20507;-64
2023/03/12 02:28:48;;;;;;;10.88;6.13;;;0.10;99.90;;;;;;5051256;28;20044;-63
2023/03/12 02:31:21;;;;;;;9.07;5.72;;;0.00;99.90;;;;;;5036413;28;20049;-63
2023/03/12 02:33:47;;;;;;;11.27;6.03;;;0.00;99.90;;;;;;5049787;28;20063;-64
2023/03/12 02:36:12;;;;;;;10.18;6.32;;;-0.10;99.90;;;;;;5051585;28;20498;-63
2023/03/12 02:38:42;;;;;;;10.90;6.15;;;-0.10;99.90;;;;;;5038355;28;20088;-63
2023/03/12 02:41:21;;;;;;;10.32;6.07;;;-0.10;99.90;;;;;;5045177;28;20044;-64
2023/03/12 02:44:04;;;;;;;11.68;6.10;;;-0.10;99.90;;;;;;5049744;28;20041;-63
2023/03/12 02:46:46;;;;;;;9.70;5.93;;;-0.10;99.90;;;;;;5048113;28;20035;-63
2023/03/12 02:49:12;;;;;;;14.00;6.22;;;-0.20;99.90;;;;;;5036364;28;20544;-64
2023/03/12 02:51:39;;;;;;;13.52;6.78;;;-0.10;99.90;;;;;;5050871;28;20029;-63
2023/03/12 02:54:05;;;;;;;11.75;6.47;;;0.00;99.90;;;;;;5044892;28;20033;-63
2023/03/12 02:56:31;;;;;;;12.13;6.43;;;0.10;99.90;;;;;;5045390;28;20037;-63
2023/03/12 02:58:57;;;;;;;13.35;6.72;;;0.20;99.90;;;;;;5050065;28;20075;-63
2023/03/12 03:01:23;;;;;;;13.13;7.15;;;0.30;99.90;;;;;;5051259;28;20068;-63
2023/03/12 03:03:49;;;;;;;9.80;6.40;;;0.40;99.90;;;;;;5037926;28;20116;-63
2023/03/12 03:06:15;;;;;;;11.88;7.07;;;0.40;99.90;;;;;;5047395;28;20129;-63
2023/03/12 03:08:41;;;;;;;12.35;7.20;;;0.50;99.90;;;;;;5050135;28;20037;-63
2023/03/12 03:11:07;;;;;;;15.15;6.80;;;0.50;99.90;;;;;;5044845;28;20371;-63
2023/03/12 03:13:33;;;;;;;10.95;6.95;;;0.50;99.90;;;;;;5046707;28;20045;-63
2023/03/12 03:16:00;;;;;;;13.48;6.82;;;0.50;99.90;;;;;;5050234;28;20036;-63
2023/03/12 03:18:27;;;;;;;16.10;7.00;;;0.50;99.90;;;;;;5050458;28;20490;-63
2023/03/12 03:21:09;;;;;;;12.15;6.82;;;0.50;99.90;;;;;;5078142;22;20128;-66
2023/03/12 03:23:35;;;;;;;11.55;7.18;;;0.40;99.90;;;;;;5027359;28;20068;-67
2023/03/12 03:26:01;;;;;;;13.80;6.90;;;0.40;99.90;;;;;;5050294;28;20044;-68
2023/03/12 03:28:28;;;;;;;13.50;7.22;;;0.40;99.90;;;;;;5033985;28;20046;-68
2023/03/12 03:30:59;;;;;;;14.07;7.60;;;0.40;99.90;;;;;;5030110;28;20065;-68
2023/03/12 03:33:25;;;;;;;15.77;6.63;;;0.40;99.90;;;;;;5031190;28;20442;-68
2023/03/12 03:35:50;;;;;;;32.38;7.53;;;0.40;99.90;;;;;;5028462;28;20039;-67
2023/03/12 03:38:16;;;;;;;13.88;7.20;;;0.50;99.90;;;;;;5028936;28;20078;-68
2023/03/12 03:40:42;;;;;;;10.85;6.88;;;0.60;99.90;;;;;;5021376;28;20549;-68
2023/03/12 03:43:08;;;;;;;13.48;7.10;;;0.60;99.90;;;;;;5030590;28;20046;-68
2023/03/12 03:45:33;;;;;;;14.00;6.97;;;0.70;99.90;;;;;;5035111;28;20407;-67
2023/03/12 03:47:59;;;;;;;15.55;6.88;;;0.70;99.90;;;;;;5013482;28;20049;-68
2023/03/12 03:50:25;;;;;;;18.00;7.50;;;0.70;99.90;;;;;;5023925;28;20045;-69
2023/03/12 03:52:50;;;;;;;11.35;7.47;;;0.70;99.90;;;;;;5026667;28;20057;-67
2023/03/12 03:55:16;;;;;;;15.32;7.43;;;0.70;99.90;;;;;;5015274;28;20064;-68
2023/03/12 03:57:41;;;;;;;13.27;7.30;;;0.70;99.90;;;;;;5021882;28;20044;-66
2023/03/12 04:00:11;;;;;;;11.75;7.18;;;0.80;99.90;;;;;;5032407;28;20048;-69
2023/03/12 04:02:38;;;;;;;12.98;7.28;;;0.70;99.90;;;;;;5040748;28;20073;-68
2023/03/12 04:05:04;;;;;;;17.40;7.90;;;0.80;99.90;;;;;;5031307;28;20037;-68
2023/03/12 04:07:30;;;;;;;16.77;8.52;;;0.80;99.90;;;;;;5034394;28;20089;-68
2023/03/12 04:09:57;;;;;;;14.77;7.85;;;0.80;99.90;;;;;;5021584;28;20095;-68
2023/03/12 04:12:24;;;;;;;12.85;7.97;;;0.90;99.90;;;;;;5022233;28;20076;-68
2023/03/12 04:14:51;;;;;;;16.75;8.45;;;0.90;99.90;;;;;;5035333;28;20057;-68
2023/03/12 04:17:16;;;;;;;13.50;8.18;;;0.90;99.90;;;;;;5027769;28;20033;-68
2023/03/12 04:19:42;;;;;;;16.27;8.48;;;0.90;99.90;;;;;;5037307;28;20029;-68
2023/03/12 04:22:08;;;;;;;16.25;8.45;;;1.00;99.90;;;;;;5025214;28;20484;-67
2023/03/12 04:24:33;;;;;;;15.52;8.57;;;1.00;99.90;;;;;;5036465;28;20041;-68
2023/03/12 04:26:59;;;;;;;15.70;8.35;;;1.00;99.90;;;;;;5020638;28;20037;-68
2023/03/12 04:29:25;;;;;;;14.35;8.25;;;1.00;99.90;;;;;;5022443;28;20121;-68
2023/03/12 04:31:50;;;;;;;15.55;7.90;;;1.00;99.90;;;;;;5018398;28;20081;-67
2023/03/12 04:34:16;;;;;;;14.10;7.88;;;1.00;99.90;;;;;;5036870;28;20049;-68
2023/03/12 04:36:41;;;;;;;14.55;8.40;;;1.10;99.90;;;;;;5032554;28;20041;-68
2023/03/12 04:39:08;;;;;;;13.57;8.13;;;1.10;99.90;;;;;;5033844;28;20107;-68
2023/03/12 04:41:34;;;;;;;13.65;8.38;;;1.10;99.90;;;;;;5027283;28;20049;-68
2023/03/12 04:47:56;;;;;;;14.68;8.43;;;1.20;99.90;;;;;;5078795;28;20028;-68
2023/03/12 04:50:22;;;;;;;15.02;7.78;;;1.20;99.90;;;;;;5031063;28;20049;-69
2023/03/12 05:05:21;;;;;;;17.70;9.27;;;1.30;99.90;;;;;;5201074;22;20045;-68
2023/03/12 05:11:29;;;;;;;15.40;9.27;;;1.40;99.90;;;;;;5071261;22;20047;-63
2023/03/12 05:13:54;;;;;;;16.25;9.52;;;1.40;99.90;;;;;;5035333;28;20045;-63
2023/03/12 05:16:20;;;;;;;16.48;9.27;;;1.40;99.90;;;;;;5046540;28;20033;-64
2023/03/12 05:18:46;;;;;;;18.25;9.13;;;1.50;99.90;;;;;;5040345;28;20036;-63
2023/03/12 05:21:14;;;;;;;16.00;9.40;;;1.40;99.90;;;;;;5052489;28;20032;-63
2023/03/12 05:23:41;;;;;;;18.83;9.88;;;1.40;99.90;;;;;;5049705;28;20043;-65
2023/03/12 05:26:36;;;;;;;17.35;9.25;;;1.40;99.90;;;;;;5045299;28;20509;-65
2023/03/12 05:29:02;;;;;;;16.17;9.13;;;1.40;99.90;;;;;;5039405;28;20057;-65
2023/03/12 05:31:31;;;;;;;17.83;9.10;;;1.50;99.90;;;;;;5053434;28;20044;-65
2023/03/12 05:33:58;;;;;;;19.90;9.88;;;1.40;99.90;;;;;;5026193;28;20045;-65
2023/03/12 05:36:23;;;;;;;16.10;9.73;;;1.40;99.90;;;;;;5046594;28;20029;-65
2023/03/12 05:38:49;;;;;;;17.17;10.35;;;1.40;99.90;;;;;;5052349;28;20540;-63
2023/03/12 05:41:26;;;;;;;24.65;11.70;;;1.40;99.90;;;;;;5046465;28;20033;-65
2023/03/12 05:43:53;;;;;;;20.77;11.50;;;1.40;99.90;;;;;;5050505;28;20033;-65
2023/03/12 05:46:19;;;;;;;17.60;11.50;;;1.30;99.90;;;;;;5053260;28;20537;-66
2023/03/12 05:48:44;;;;;;;22.77;11.75;;;1.40;99.90;;;;;;5052499;28;20036;-65
2023/03/12 05:51:10;;;;;;;18.33;11.35;;;1.30;99.90;;;;;;5045961;28;20033;-65
2023/03/12 05:53:35;;;;;;;21.67;11.90;;;1.30;99.90;;;;;;5038127;28;20037;-65
2023/03/12 05:56:06;;;;;;;25.60;11.65;;;1.40;99.90;;;;;;5052846;28;20044;-65
2023/03/12 05:58:34;;;;;;;19.75;12.25;;;1.30;99.90;;;;;;5048983;28;20037;-64
2023/03/12 06:00:59;;;;;;;23.63;12.05;;;1.30;99.90;;;;;;5046509;28;20474;-64
2023/03/12 06:03:25;;;;;;;20.27;12.32;;;1.30;99.90;;;;;;5044892;28;20115;-63
2023/03/12 06:05:54;;;;;;;17.65;12.05;;;1.30;99.90;;;;;;5051854;28;20033;-64
2023/03/12 06:08:21;;;;;;;21.52;11.63;;;1.40;99.90;;;;;;5034052;28;20092;-65
2023/03/12 06:10:46;;;;;;;21.85;11.93;;;1.40;99.90;;;;;;5044435;28;20033;-65
2023/03/12 06:13:12;;;;;;;23.23;11.90;;;1.30;99.90;;;;;;5051450;28;20029;-63
2023/03/12 06:15:37;;;;;;;23.58;12.10;;;1.40;99.90;;;;;;5048491;28;20048;-65
2023/03/12 06:18:03;;;;;;;22.08;11.60;;;1.40;99.90;;;;;;5050776;28;20037;-64
2023/03/12 06:20:29;;;;;;;17.50;10.55;;;1.40;99.90;;;;;;5048869;28;20103;-65
2023/03/12 06:22:54;;;;;;;23.90;11.13;;;1.40;99.90;;;;;;5049573;28;20040;-63
2023/03/12 06:25:20;;;;;;;19.80;11.75;;;1.40;99.90;;;;;;5037098;28;20021;-65
2023/03/12 06:27:45;;;;;;;15.13;9.95;;;1.50;99.90;;;;;;5041994;28;20037;-66
2023/03/12 06:30:11;;;;;;;17.70;10.55;;;1.60;99.90;;;;;;5048721;28;20160;-65
2023/03/12 06:32:37;;;;;;;18.50;10.73;;;1.60;99.90;;;;;;5035050;28;20124;-63
2023/03/12 06:35:04;;;;;;;24.35;10.20;;;1.60;99.90;;;;;;5044583;28;20055;-63
2023/03/12 06:37:30;;;;;;;18.70;10.00;;;1.70;99.90;;;;;;5048971;28;20041;-65
2023/03/12 06:39:56;;;;;;;15.27;9.35;;;1.80;99.90;;;;;;5049462;28;20041;-65
2023/03/12 06:42:21;;;;;;;17.15;9.52;;;1.80;99.90;;;;;;5036409;28;20036;-64
2023/03/12 06:44:51;;;;;;;15.50;8.77;;;1.90;99.90;;;;;;5048679;28;20115;-65
2023/03/12 06:47:17;;;;;;;16.10;8.93;;;1.90;99.90;;;;;;5047526;28;20082;-63
2023/03/12 06:49:42;;;;;;;14.32;8.70;;;2.00;99.90;;;;;;5031416;28;20739;-65
2023/03/12 06:52:08;;;;;;;17.02;9.55;;;2.00;99.90;;;;;;5033361;28;20135;-65
2023/03/12 06:54:33;;;;;;;17.45;9.30;;;2.10;99.90;;;;;;5037415;28;20067;-63
2023/03/12 06:56:59;;;;;;;19.23;10.70;;;2.10;99.90;;;;;;5048819;28;20064;-65
2023/03/12 06:59:25;;;;;;;21.25;9.80;;;2.20;99.90;;;;;;5048519;28;20725;-64
2023/03/12 07:01:51;;;;;;;17.33;10.02;;;2.20;99.90;;;;;;5044278;28;20040;-64
2023/03/12 07:04:17;;;;;;;19.33;8.82;;;2.20;99.90;;;;;;5034255;28;20041;-63
2023/03/12 07:06:42;;;;;;;15.75;9.30;;;2.30;99.90;;;;;;5042397;28;20044;-64
2023/03/12 07:09:08;;;;;;;15.73;9.35;;;2.30;99.90;;;;;;5040130;28;20041;-62
2023/03/12 07:11:34;;;;;;;20.92;10.20;;;2.30;99.90;;;;;;5048503;28;20029;-62
2023/03/12 07:14:00;;;;;;;13.00;6.70;;;2.30;99.90;;;;;;5048845;28;20052;-65
2023/03/12 07:16:26;;;;;;;20.48;10.23;;;2.30;99.90;;;;;;5036159;28;20037;-64
2023/03/12 07:18:51;;;;;;;17.10;9.52;;;2.30;99.90;;;;;;5045594;28;20048;-65
2023/03/12 07:21:21;;;;;;;17.10;9.82;;;2.30;99.90;;;;;;5046136;28;20410;-64
2023/03/12 07:23:50;;;;;;;16.92;9.30;;;2.30;99.90;;;;;;5033625;28;20037;-64
2023/03/12 07:26:16;;;;;;;16.67;9.50;;;2.30;99.90;;;;;;5048414;28;20029;-65
2023/03/12 07:28:42;;;;;;;17.58;9.68;;;2.20;99.90;;;;;;5042531;28;20028;-65
2023/03/12 07:31:08;;;;;;;18.10;9.18;;;2.20;99.90;;;;;;5047058;28;20114;-65
2023/03/12 07:33:34;;;;;;;20.17;9.73;;;2.30;99.90;;;;;;5048092;28;20037;-64
2023/03/12 07:35:59;;;;;;;19.85;10.32;;;2.30;99.90;;;;;;5048616;28;20068;-64
2023/03/12 07:38:25;;;;;;;17.35;9.95;;;2.30;99.90;;;;;;5025246;28;20064;-64
2023/03/12 07:40:55;;;;;;;15.73;9.68;;;2.30;99.90;;;;;;5019284;28;20068;-64
2023/03/12 07:43:21;;;;;;;21.40;10.63;;;2.30;99.90;;;;;;5052386;28;20041;-61
2023/03/12 07:45:48;;;;;;;16.50;9.57;;;2.30;99.90;;;;;;5052325;28;20090;-61
2023/03/12 07:48:13;;;;;;;17.42;9.98;;;2.40;99.90;;;;;;5040204;28;20025;-64
2023/03/12 07:50:39;;;;;;;15.02;9.32;;;2.30;99.90;;;;;;5052052;28;20561;-65
2023/03/12 07:53:05;;;;;;;16.13;9.75;;;2.30;99.90;;;;;;5055260;28;20060;-65
2023/03/12 07:55:32;;;;;;;19.50;9.98;;;2.20;99.90;;;;;;5039026;28;20539;-64
2023/03/12 07:57:57;;;;;;;15.48;9.75;;;2.20;99.90;;;;;;5053543;28;20107;-63
2023/03/12 08:00:24;;;;;;;16.48;9.45;;;2.10;99.90;;;;;;5047289;28;20045;-64
2023/03/12 08:02:50;;;;;;;21.42;10.18;;;2.10;99.90;;;;;;5055026;28;20486;-63
2023/03/12 08:05:15;;;;;;;16.67;9.80;;;2.00;99.90;;;;;;5048486;28;20117;-62
2023/03/12 08:07:41;;;;;;;17.10;10.75;;;2.00;99.90;;;;;;5052708;28;20051;-64
2023/03/12 08:10:09;;;;;;;13.60;8.32;;;2.00;99.90;;;;;;5054579;28;20086;-64
2023/03/12 08:12:36;;;;;;;19.23;10.15;;;2.00;99.90;;;;;;5050354;28;20037;-64
2023/03/12 08:15:05;;;;;;;19.48;10.25;;;2.00;99.90;;;;;;5043007;28;20589;-64
2023/03/12 08:17:31;;;;;;;17.77;10.30;;;2.00;99.90;;;;;;5053140;28;20040;-64
2023/03/12 08:19:56;;;;;;;16.90;11.13;;;2.10;99.90;;;;;;5053860;28;20052;-65
2023/03/12 08:22:22;;;;;;;19.98;10.50;;;2.10;99.90;;;;;;5054537;28;20036;-63
2023/03/12 08:24:47;;;;;;;18.30;10.48;;;2.10;99.90;;;;;;5040603;28;20036;-63
2023/03/12 08:27:13;;;;;;;13.77;9.05;;;2.20;99.90;;;;;;5047979;28;20037;-62
2023/03/12 08:29:40;;;;;;;19.08;10.27;;;2.20;99.90;;;;;;5047459;28;20041;-64
2023/03/12 08:32:07;;;;;;;18.88;10.20;;;2.20;99.90;;;;;;5052204;28;20503;-64
2023/03/12 08:34:33;;;;;;;15.40;9.85;;;2.20;99.90;;;;;;5036035;28;20048;-65
2023/03/12 08:36:59;;;;;;;15.80;10.00;;;2.20;99.90;;;;;;5053929;28;20041;-71
2023/03/12 08:39:25;;;;;;;16.17;9.77;;;2.30;99.90;;;;;;5045671;28;20036;-64
2023/03/12 08:41:54;;;;;;;16.88;9.18;;;2.30;99.90;;;;;;5051390;28;20021;-63
2023/03/12 08:44:23;;;;;;;15.77;9.00;;;2.30;99.90;;;;;;5036362;28;20120;-63
2023/03/12 08:46:49;;;;;;;17.67;9.90;;;2.30;99.90;;;;;;5043339;28;20037;-66
2023/03/12 08:49:15;;;;;;;20.63;10.30;;;2.40;99.90;;;;;;5052929;28;20043;-65
2023/03/12 08:51:40;;;;;;;14.85;8.57;;;2.40;99.90;;;;;;5053012;28;20072;-65
2023/03/12 08:54:06;;;;;;;14.95;8.38;;;2.50;99.90;;;;;;5052529;28;20665;-64
2023/03/12 08:56:31;;;;;;;13.75;8.63;;;2.50;99.90;;;;;;5041624;28;20479;-64
2023/03/12 08:58:58;;;;;;;14.63;8.80;;;2.60;99.90;;;;;;5052605;28;20079;-64
2023/03/12 09:01:24;;;;;;;17.73;8.65;;;2.70;99.90;;;;;;5049798;28;20086;-65
2023/03/12 09:03:51;;;;;;;18.00;9.50;;;2.70;99.90;;;;;;5045830;28;20441;-65
2023/03/12 09:06:18;;;;;;;15.15;8.63;;;2.80;99.90;;;;;;5053242;28;20033;-64
2023/03/12 09:08:44;;;;;;;18.60;9.85;;;2.80;99.90;;;;;;5053090;28;20116;-63
2023/03/12 09:11:12;;;;;;;23.70;9.75;;;2.90;99.90;;;;;;5041357;28;20041;-65
2023/03/12 09:13:39;;;;;;;17.13;10.43;;;2.80;99.90;;;;;;5051077;28;20104;-64
2023/03/12 09:16:05;;;;;;;18.92;10.95;;;2.80;99.90;;;;;;5053589;28;20037;-64
2023/03/12 09:18:32;;;;;;;18.42;10.85;;;2.90;99.90;;;;;;5041484;28;20045;-65
2023/03/12 09:20:58;;;;;;;20.25;11.20;;;3.00;99.90;;;;;;5039224;28;20069;-64
2023/03/12 09:23:24;;;;;;;18.52;11.50;;;3.00;99.90;;;;;;5053277;28;20060;-65
2023/03/12 09:25:51;;;;;;;19.92;11.38;;;2.90;99.90;;;;;;5053460;28;20033;-63
2023/03/12 09:28:17;;;;;;;20.80;11.77;;;2.90;99.90;;;;;;5038714;28;20390;-64
2023/03/12 09:30:43;;;;;;;19.60;11.05;;;3.00;99.90;;;;;;5041199;28;20041;-63
2023/03/12 09:33:09;;;;;;;21.75;10.95;;;3.00;99.90;;;;;;5053506;28;20044;-64
2023/03/12 09:35:35;;;;;;;23.10;11.20;;;3.00;99.90;;;;;;5043181;28;20425;-64
2023/03/12 09:38:01;;;;;;;24.63;11.90;;;3.10;99.90;;;;;;5051342;28;20589;-64
2023/03/12 09:40:30;;;;;;;24.73;12.50;;;3.20;99.90;;;;;;5052653;28;20384;-64
2023/03/12 09:43:06;;;;;;;21.67;12.25;;;3.30;99.90;;;;;;5053539;28;20048;-65
2023/03/12 09:45:42;;;;;;;24.80;14.23;;;3.30;99.90;;;;;;5048437;28;20040;-64
2023/03/12 09:48:14;;;;;;;24.60;13.23;;;3.30;99.90;;;;;;5049282;28;20052;-64
2023/03/12 09:50:43;;;;;;;23.83;14.10;;;3.30;99.90;;;;;;5047686;28;20053;-65
2023/03/12 09:53:32;;;;;;;22.48;12.30;;;3.40;99.90;;;;;;5046226;28;20082;-64
2023/03/12 09:56:01;;;;;;;24.88;15.15;;;3.30;99.90;;;;;;5041446;28;20056;-64
2023/03/12 09:58:26;;;;;;;25.77;15.00;;;3.30;99.90;;;;;;5052827;28;20037;-65
2023/03/12 10:01:05;;;;;;;24.73;15.93;;;3.30;99.90;;;;;;5048956;28;20048;-64
2023/03/12 10:03:31;;;;;;;31.60;17.20;;;3.30;99.90;;;;;;5019162;28;20121;-63
2023/03/12 10:06:19;;;;;;;24.65;14.05;;;3.30;99.90;;;;;;5050512;28;20124;-65
2023/03/12 10:08:57;;;;;;;28.60;14.77;;;3.30;99.90;;;;;;5043699;28;20035;-65
2023/03/12 10:11:46;;;;;;;30.50;17.33;;;3.40;99.90;;;;;;5040101;28;20040;-65
2023/03/12 10:14:32;;;;;;;30.45;16.63;;;3.40;99.90;;;;;;5045009;28;20056;-64
2023/03/12 10:17:29;;;;;;;28.10;16.05;;;3.40;99.90;;;;;;5044628;28;20099;-65
2023/03/12 10:20:27;;;;;;;27.50;16.00;;;3.50;99.90;;;;;;5049505;28;20048;-64
2023/03/12 10:23:02;;;;;;;27.75;16.55;;;3.60;99.90;;;;;;5052279;28;20491;-65
2023/03/12 10:25:37;;;;;;;30.50;16.67;;;3.60;99.90;;;;;;5043657;28;20029;-64
2023/03/12 10:28:16;;;;;;;25.85;15.77;;;3.60;99.90;;;;;;5050717;28;20483;-65
2023/03/12 10:30:48;;;;;;;29.33;16.33;;;3.70;99.90;;;;;;5051907;28;20068;-64
2023/03/12 10:33:17;;;;;;;29.05;15.90;;;3.80;99.90;;;;;;5048247;28;20083;-63
2023/03/12 10:35:43;;;;;;;28.92;17.20;;;3.80;99.90;;;;;;5037200;28;20037;-64
2023/03/12 10:38:25;;;;;;;27.50;16.23;;;3.90;99.90;;;;;;5033981;28;20037;-63
2023/03/12 10:40:51;;;;;;;28.65;16.08;;;3.90;99.90;;;;;;5051741;28;20041;-65
2023/03/12 10:43:16;;;;;;;24.90;13.88;;;4.00;99.90;;;;;;5034041;28;20044;-63
2023/03/12 10:46:06;;;;;;;28.10;15.65;;;4.00;99.90;;;;;;5036461;28;20404;-64
2023/03/12 10:48:31;;;;;;;26.65;16.67;;;4.10;99.90;;;;;;5044412;28;20037;-64
2023/03/12 10:51:09;;;;;;;28.13;14.85;;;4.20;99.90;;;;;;5050924;28;20043;-65
2023/03/12 10:53:39;;;;;;;24.50;14.73;;;4.30;99.90;;;;;;5051692;28;20048;-63
2023/03/12 10:56:07;;;;;;;25.35;15.50;;;4.40;99.90;;;;;;5044349;28;20533;-65
2023/03/12 10:58:46;;;;;;;28.27;15.40;;;4.40;99.90;;;;;;5047987;28;20040;-65
2023/03/12 11:01:25;;;;;;;25.88;14.65;;;4.40;99.90;;;;;;5048327;28;20060;-65
2023/03/12 11:03:52;;;;;;;25.27;14.73;;;4.30;99.90;;;;;;5049537;28;20120;-65
2023/03/12 11:06:28;;;;;;;24.00;14.55;;;4.30;99.90;;;;;;5051441;28;20487;-64
2023/03/12 11:09:08;;;;;;;24.70;15.10;;;4.40;99.90;;;;;;5042488;28;20095;-64
2023/03/12 11:11:35;;;;;;;28.23;15.25;;;4.50;99.90;;;;;;5048976;28;20041;-63
2023/03/12 11:14:07;;;;;;;24.00;14.68;;;4.60;99.90;;;;;;5049801;28;20033;-64
2023/03/12 11:16:32;;;;;;;27.88;14.55;;;4.50;99.90;;;;;;5045359;28;20060;-65
2023/03/12 11:19:00;;;;;;;27.23;15.90;;;4.60;99.90;;;;;;5035821;28;20491;-65
2023/03/12 11:21:27;;;;;;;27.75;15.48;;;4.50;99.90;;;;;;5050694;28;20076;-64
2023/03/12 11:23:56;;;;;;;21.95;13.70;;;4.60;99.90;;;;;;5051315;28;20483;-65
2023/03/12 11:26:24;;;;;;;25.98;15.48;;;4.70;99.90;;;;;;5041219;28;20032;-65
2023/03/12 11:28:58;;;;;;;23.50;13.48;;;4.70;99.90;;;;;;5047788;28;20076;-65
2023/03/12 11:31:36;;;;;;;27.40;16.48;;;4.80;99.90;;;;;;5050394;28;20086;-63
2023/03/12 11:34:09;;;;;;;23.63;14.20;;;4.90;99.90;;;;;;5038974;28;20047;-65
2023/03/12 11:37:04;;;;;;;27.33;14.95;;;5.00;99.90;;;;;;5050635;28;20047;-64
2023/03/12 11:40:08;;;;;;;25.10;14.38;;;5.00;99.90;;;;;;4976181;28;20063;-65
2023/03/12 11:42:57;;;;;;;25.38;14.60;;;5.20;99.90;;;;;;5019688;28;20041;-67
2023/03/12 11:45:47;;;;;;;27.45;15.90;;;5.30;99.90;;;;;;5052942;22;20513;-68
2023/03/12 11:48:29;;;;;;;25.58;15.57;;;5.50;99.90;;;;;;5036830;28;20060;-68
2023/03/12 11:51:36;;;;;;;29.50;15.68;;;5.60;99.90;;;;;;5039809;28;20511;-68
2023/03/12 11:54:10;;;;;;;29.92;14.10;;;5.70;99.90;;;;;;5025734;28;20123;-67
2023/03/12 11:56:43;;;;;;;29.33;14.85;;;5.70;99.90;;;;;;5050844;28;20037;-66
2023/03/12 11:59:27;;;;;;;37.65;19.80;;;5.80;99.90;;;;;;5045948;28;20116;-65
2023/03/12 12:02:10;;;;;;;34.47;18.08;;;5.90;99.90;;;;;;5037526;28;20120;-66
2023/03/12 12:04:53;;;;;;;32.30;17.27;;;6.00;99.90;;;;;;5048444;28;20037;-67
2023/03/12 12:07:40;;;;;;;38.20;17.23;;;6.10;99.90;;;;;;5024385;28;20048;-66
2023/03/12 12:10:24;;;;;;;23.25;13.00;;;6.10;99.90;;;;;;5048678;28;20037;-66
2023/03/12 12:13:14;;;;;;;40.20;18.23;;;6.10;99.90;;;;;;5044468;28;20056;-66
2023/03/12 12:16:16;;;;;;;33.47;17.33;;;6.10;99.90;;;;;;5045522;28;20033;-66
2023/03/12 12:18:58;;;;;;;34.85;16.75;;;6.20;99.90;;;;;;5047239;28;20120;-66
2023/03/12 12:21:29;;;;;;;39.20;17.38;;;6.30;99.90;;;;;;5029802;28;20258;-66
2023/03/12 12:24:11;;;;;;;36.85;17.65;;;6.30;99.90;;;;;;5039097;28;20116;-66
2023/03/12 12:26:42;;;;;;;;;;;6.30;99.90;;;;;;5036201;28;20095;-66
2023/03/12 12:29:35;;;;;;;31.05;13.77;;;6.30;99.90;;;;;;5052732;28;20013;-66
2023/03/12 12:32:02;;;;;;;31.20;14.65;;;6.50;99.90;;;;;;5033703;28;20041;-66
2023/03/12 12:34:31;;;;;;;32.58;16.52;;;6.50;99.90;;;;;;5053574;28;20077;-66
2023/03/12 12:37:14;;;;;;;40.63;17.33;;;6.50;99.90;;;;;;5054046;28;20495;-67
2023/03/12 12:39:46;;;;;;;34.40;16.05;;;6.60;99.90;;;;;;5020162;28;20041;-66
2023/03/12 12:42:19;;;;;;;38.30;16.08;;;6.60;99.90;;;;;;5046344;28;20037;-66
2023/03/12 12:44:51;;;;;;;37.55;16.27;;;6.70;99.90;;;;;;5049732;28;20052;-66
2023/03/12 12:47:41;;;;;;;38.15;17.23;;;6.80;99.90;;;;;;5053351;28;20044;-65
2023/03/12 12:50:16;;;;;;;40.90;16.25;;;6.90;99.90;;;;;;5025857;28;20059;-65
2023/03/12 12:52:43;;;;;;;39.85;16.23;;;7.10;99.90;;;;;;5050404;28;20037;-64
2023/03/12 12:55:20;;;;;;;37.97;16.52;;;7.10;99.90;;;;;;5036415;28;20048;-65
2023/03/12 12:58:11;;;;;;;44.53;16.52;;;7.10;99.90;;;;;;5050143;28;20029;-65
2023/03/12 13:00:46;;;;;;;35.63;15.43;;;7.30;99.90;;;;;;5033181;28;20529;-65
2023/03/12 13:03:16;;;;;;;36.13;16.10;;;7.40;99.90;;;;;;5054033;28;20041;-64
2023/03/12 13:05:55;;;;;;;48.05;16.17;;;7.40;99.90;;;;;;5048915;28;20064;-65
2023/03/12 13:08:55;;;;;;;43.30;16.52;;;7.50;99.90;;;;;;5046703;28;20047;-65
2023/03/12 13:11:28;;;;;;;48.50;16.95;;;7.50;99.90;;;;;;5046938;28;20114;-64
2023/03/12 13:14:03;;;;;;;49.15;17.75;;;7.60;99.90;;;;;;5041153;28;20036;-65